Runway excursion Serious incident Learjet 45 LV-GVX, Thursday 17 August 2017
ASN logo
 
This information is added by users of ASN. Neither ASN nor the Flight Safety Foundation are responsible for the completeness or correctness of this information. If you feel this information is incomplete or incorrect, you can submit corrected information.

Date:Thursday 17 August 2017
Time:18:45 LT
Type:Silhouette image of generic LJ45 model; specific model in this crash may look slightly different    
Learjet 45
Owner/operator:Elair
Registration: LV-GVX
MSN: 45-070
Fatalities:Fatalities: 0 / Occupants: 4
Other fatalities:0
Aircraft damage: Minor
Category:Serious incident
Location:Buenos Aires-Jorge Newbery Airport, BA (AEP/SABE) -   Argentina
Phase: Landing
Nature:Passenger - Non-Scheduled/charter/Air Taxi
Departure airport:Montevideo-Carrasco Airport (MVD/SUMU)
Destination airport:Buenos Aires-Jorge Newbery Airport, BA (AEP/SABE)
Investigating agency: JIAAC
Confidence Rating: Information verified through data from accident investigation authorities
Narrative:
A Learjet 45, LV-GVX, suffered a runway excursion incident after landing on runway 31 at Buenos Aires-Jorge Newbery Airport in Argentina.
The aircraft stopped at the end of the paved runway safety area, approximately 220 meters past the end of the runway.

Weather at the time of the incident (18:45 LT / 2145Z):
SABE 172200Z 31004KT 260V320 CAVOK 19/11 Q1014
SABE 172100Z 32009KT CAVOK 19/11 Q1014

Accident investigation:
cover
  
Investigating agency: JIAAC
Report number: 
Status: Investigation completed
Duration:
Download report: Final report

Sources:

1. https://aerospotter.blogspot.nl/2017/08/despiste-en-aeroparque.html
2. https://www.infobae.com/sociedad/2017/08/17/despisto-un-jet-privado-en-aeroparque-y-derivan-los-vuelos-a-ezeiza/
3. https://aerospotter.blogspot.com/2017/08/despiste-en-aeroparque.html
4. https://jiaac.gob.ar/files/informes/302465-17.pdf

Images:



Media:

Revision history:

Date/timeContributorUpdates
18-Aug-2017 07:08 harro Added
18-Aug-2017 09:41 harro Updated [Source, Embed code]
03-Sep-2018 13:37 Iceman 29 Updated [Time, Source, Embed code, Damage, Photo]
03-Sep-2018 13:46 Iceman 29 Updated [Embed code, Narrative, Photo]
03-Sep-2018 14:59 harro Updated [Source]
03-Sep-2018 19:15 Iceman 29 Updated [Photo]
14-Jul-2020 16:44 KagurazakaHanayo Updated [Source]
14-Jul-2020 16:45 harro Updated [Source, Narrative, Accident report, ]

Corrections or additions? ... Edit this accident description

The Aviation Safety Network is an exclusive service provided by:
Quick Links:

CONNECT WITH US: FSF on social media FSF Facebook FSF Twitter FSF Youtube FSF LinkedIn FSF Instagram

©2024 Flight Safety Foundation

1920 Ballenger Av, 4th Fl.
Alexandria, Virginia 22314
www.FlightSafety.org